Time;durP1;ratioP1;P1;durP2;ratioP2;P2;SDS_P1;SDS_P2;PMS_P1;PMS_P2;Temp;Humidity;BMP_temperature;BMP_pressure;BME280_temperature;BME280_humidity;BME280_pressure;Samples;Min_cycle;Max_cycle;Signal;HPM_P1;HPM_P2
2022/09/16 00:05:48;;;;;;;3.00;2.08;;;23.50;73.90;;;;;;10876368;32;20426;-73
2022/09/16 00:11:50;;;;;;;4.15;1.70;;;23.50;73.90;;;;;;10821420;33;20039;-73
2022/09/16 00:17:52;;;;;;;3.08;1.87;;;23.50;73.80;;;;;;10825329;33;20384;-73
2022/09/16 00:23:56;;;;;;;2.70;1.70;;;23.40;73.90;;;;;;10852796;27;20075;-73
2022/09/16 00:29:58;;;;;;;4.22;2.30;;;23.40;73.90;;;;;;10848884;32;20027;-73
2022/09/16 00:36:17;;;;;;;7.40;1.65;;;23.30;74.00;;;;;;10848518;32;20024;-73
2022/09/16 00:42:19;;;;;;;2.97;1.62;;;23.30;74.00;;;;;;10859678;32;20046;-73
2022/09/16 00:48:25;;;;;;;3.92;2.10;;;23.30;74.20;;;;;;10860882;32;20035;-73
2022/09/16 00:54:29;;;;;;;3.72;2.10;;;23.30;74.20;;;;;;10857856;32;20059;-74
2022/09/16 01:00:31;;;;;;;2.58;1.90;;;23.30;74.70;;;;;;10857249;32;20036;-72
2022/09/16 01:06:38;;;;;;;4.12;2.80;;;23.30;74.90;;;;;;10856955;32;20292;-72
2022/09/16 01:13:28;;;;;;;16.58;3.90;;;23.30;74.80;;;;;;10860999;32;20024;-72
2022/09/16 01:19:55;;;;;;;3.37;2.12;;;23.20;74.80;;;;;;10860833;32;20051;-73
2022/09/16 01:26:01;;;;;;;2.17;1.67;;;23.10;75.20;;;;;;10856583;32;20366;-73
2022/09/16 01:32:10;;;;;;;4.82;1.77;;;23.10;75.60;;;;;;10860529;32;20028;-72
2022/09/16 01:38:24;;;;;;;;;;;23.00;75.90;;;;;;10861465;32;20031;-73
2022/09/16 01:45:11;;;;;;;3.70;2.42;;;22.90;76.40;;;;;;10856176;32;20237;-72
2022/09/16 01:51:25;;;;;;;3.67;2.25;;;23.00;76.20;;;;;;10855782;32;20058;-73
2022/09/16 01:57:27;;;;;;;7.90;2.87;;;22.90;76.20;;;;;;10859954;32;20043;-72
2022/09/16 02:03:35;;;;;;;5.90;2.08;;;22.90;76.40;;;;;;10866249;32;20438;-73
2022/09/16 02:09:48;;;;;;;5.50;1.58;;;22.90;76.30;;;;;;10865940;32;20051;-73
2022/09/16 02:15:53;;;;;;;3.45;1.60;;;22.80;76.20;;;;;;10866010;32;20023;-73
2022/09/16 02:21:57;;;;;;;3.15;1.87;;;22.80;76.20;;;;;;10865591;32;20019;-73
2022/09/16 02:28:04;;;;;;;2.90;1.80;;;22.80;76.20;;;;;;10865543;32;20430;-72
2022/09/16 02:34:13;;;;;;;5.35;2.40;;;22.80;76.30;;;;;;10865261;32;20046;-72
2022/09/16 02:40:33;;;;;;;6.97;2.17;;;22.80;76.30;;;;;;10865200;32;20042;-72
2022/09/16 02:46:43;;;;;;;5.57;2.78;;;22.80;76.80;;;;;;10864773;32;20019;-72
2022/09/16 02:52:55;;;;;;;3.00;1.80;;;22.80;76.70;;;;;;10864809;32;20028;-72
2022/09/16 02:58:57;;;;;;;3.72;2.35;;;22.80;76.70;;;;;;10864589;32;20019;-72
2022/09/16 03:05:00;;;;;;;2.75;1.70;;;22.80;76.70;;;;;;10864464;32;20019;-72
2022/09/16 03:11:30;;;;;;;7.72;2.70;;;22.80;76.60;;;;;;10846929;32;20028;-73
2022/09/16 03:17:57;;;;;;;2.37;1.87;;;22.70;76.70;;;;;;10862761;32;20335;-73
2022/09/16 03:24:22;;;;;;;4.72;2.40;;;22.70;76.80;;;;;;10859726;32;20205;-72
2022/09/16 03:30:24;;;;;;;6.00;2.37;;;22.70;76.70;;;;;;10860517;32;20020;-72
2022/09/16 03:36:33;;;;;;;3.05;1.85;;;22.70;76.80;;;;;;10863552;32;20020;-73
2022/09/16 03:42:38;;;;;;;7.00;3.08;;;22.70;76.80;;;;;;10863296;32;20042;-73
2022/09/16 03:48:41;;;;;;;4.18;2.15;;;22.70;76.70;;;;;;10859026;32;20387;-73
2022/09/16 03:54:47;;;;;;;5.65;2.40;;;22.70;76.70;;;;;;10863028;32;20036;-73
2022/09/16 04:00:49;;;;;;;6.57;1.80;;;22.70;76.70;;;;;;10860522;32;20042;-73
2022/09/16 04:06:52;;;;;;;2.22;1.62;;;22.70;76.80;;;;;;10862574;32;20054;-73
2022/09/16 04:12:57;;;;;;;2.65;1.77;;;22.70;76.70;;;;;;10862466;32;20020;-72
2022/09/16 04:18:59;;;;;;;2.97;1.45;;;22.50;76.80;;;;;;10861622;32;20020;-73
2022/09/16 04:25:05;;;;;;;3.75;1.70;;;22.50;76.80;;;;;;10861274;32;20023;-73
2022/09/16 04:31:10;;;;;;;5.30;2.10;;;22.50;77.10;;;;;;10848898;32;20430;-73
2022/09/16 04:37:13;;;;;;;6.05;2.08;;;22.50;77.20;;;;;;10861895;32;20042;-73
2022/09/16 04:43:15;;;;;;;4.80;2.22;;;22.50;77.40;;;;;;10861702;32;20379;-72
2022/09/16 04:49:17;;;;;;;4.03;1.62;;;22.50;77.50;;;;;;10861457;32;20023;-72
2022/09/16 04:55:22;;;;;;;5.37;1.83;;;22.50;77.40;;;;;;10857380;32;20028;-72
2022/09/16 05:02:03;;;;;;;4.35;1.80;;;22.50;77.40;;;;;;10856471;32;20059;-72
2022/09/16 05:08:06;;;;;;;7.00;2.30;;;22.50;77.40;;;;;;10861144;32;20040;-72
2022/09/16 05:14:17;;;;;;;4.95;2.70;;;22.50;77.30;;;;;;10833864;32;20319;-72
2022/09/16 05:20:19;;;;;;;4.25;2.37;;;22.50;77.20;;;;;;10823883;32;20075;-72
2022/09/16 05:26:23;;;;;;;2.22;1.30;;;22.40;77.20;;;;;;10819526;33;20028;-72
2022/09/16 05:32:26;;;;;;;2.85;1.17;;;22.40;77.30;;;;;;10824222;32;20028;-72
2022/09/16 05:38:28;;;;;;;2.65;1.55;;;22.40;77.20;;;;;;10830279;33;20317;-72
2022/09/16 05:44:31;;;;;;;3.55;1.98;;;22.40;77.40;;;;;;10816710;33;20042;-72
2022/09/16 05:50:33;;;;;;;2.28;1.48;;;22.40;77.60;;;;;;10829597;32;20289;-72
2022/09/16 05:56:35;;;;;;;2.92;1.62;;;22.50;77.40;;;;;;10829207;33;20028;-72
2022/09/16 06:02:37;;;;;;;3.90;1.73;;;22.50;77.40;;;;;;10829180;33;20020;-73
2022/09/16 06:15:04;;;;;;;3.62;1.80;;;22.60;77.20;;;;;;11412860;27;20440;-75
2022/09/16 06:21:09;;;;;;;2.03;1.40;;;22.60;77.40;;;;;;10904977;32;20417;-74
2022/09/16 06:27:12;;;;;;;4.05;1.90;;;22.70;77.60;;;;;;10900501;32;20035;-75
2022/09/16 06:33:15;;;;;;;5.37;1.60;;;22.70;77.80;;;;;;10899283;32;20061;-73
2022/09/16 06:39:19;;;;;;;2.92;1.92;;;22.70;77.80;;;;;;10909086;32;20027;-77
2022/09/16 06:45:21;;;;;;;1.75;1.65;;;22.80;77.90;;;;;;10908685;32;20281;-74
2022/09/16 06:51:28;;;;;;;3.72;1.67;;;22.70;77.90;;;;;;10893389;32;20484;-75
2022/09/16 06:57:30;;;;;;;4.47;2.12;;;22.70;77.90;;;;;;10893884;32;20383;-75
2022/09/16 07:03:36;;;;;;;4.03;1.73;;;22.80;77.90;;;;;;10907985;32;20027;-75
2022/09/16 07:09:40;;;;;;;8.65;1.35;;;22.80;77.90;;;;;;10904195;32;20055;-76
2022/09/16 07:15:41;;;;;;;1.48;1.30;;;22.90;77.90;;;;;;10908109;32;20053;-74
2022/09/16 07:21:43;;;;;;;2.62;1.77;;;23.00;77.60;;;;;;10907479;32;20070;-74
2022/09/16 07:27:46;;;;;;;5.78;2.00;;;23.10;77.30;;;;;;10907803;32;20331;-75
2022/09/16 07:33:49;;;;;;;2.05;1.62;;;23.30;77.30;;;;;;10907432;32;20027;-76
2022/09/16 07:39:51;;;;;;;3.03;1.40;;;23.30;77.20;;;;;;10907696;32;20058;-74
2022/09/16 07:45:58;;;;;;;2.20;1.37;;;23.40;76.80;;;;;;10907188;32;20442;-75
2022/09/16 07:52:00;;;;;;;3.12;1.52;;;23.50;76.70;;;;;;10883595;32;20384;-76
2022/09/16 07:58:02;;;;;;;6.47;1.70;;;23.50;76.50;;;;;;10869301;32;20027;-76
2022/09/16 08:04:05;;;;;;;2.70;1.17;;;23.60;76.50;;;;;;10865309;32;20066;-75
2022/09/16 08:10:07;;;;;;;3.92;1.83;;;23.70;76.40;;;;;;10864967;32;20066;-75
2022/09/16 08:16:18;;;;;;;1.42;1.00;;;23.70;76.20;;;;;;10864669;32;20031;-75
2022/09/16 08:22:22;;;;;;;2.58;1.42;;;23.80;75.90;;;;;;10486545;32;11998032;-75
2022/09/16 08:28:25;;;;;;;4.55;1.95;;;23.90;75.80;;;;;;10823087;33;20496;-75
2022/09/16 08:34:27;;;;;;;3.47;1.70;;;24.00;75.50;;;;;;10814467;32;20329;-75
2022/09/16 08:40:34;;;;;;;4.55;1.80;;;24.20;75.40;;;;;;10826833;32;20059;-76
2022/09/16 08:46:52;;;;;;;2.65;1.60;;;24.30;75.20;;;;;;10823114;33;20430;-75
2022/09/16 08:52:58;;;;;;;14.00;2.65;;;24.40;75.00;;;;;;10816055;32;20058;-76
2022/09/16 08:59:02;;;;;;;1.95;1.35;;;24.50;74.70;;;;;;10865425;32;20057;-74
2022/09/16 09:05:39;;;;;;;7.07;3.12;;;24.60;74.40;;;;;;10863600;32;20059;-74
2022/09/16 09:11:53;;;;;;;3.33;2.22;;;24.60;74.20;;;;;;10757013;33;20071;-75
2022/09/16 09:17:54;;;;;;;6.72;2.33;;;24.70;74.20;;;;;;10758378;33;20110;-74
2022/09/16 09:24:51;;;;;;;12.37;3.90;;;24.80;73.90;;;;;;10756359;33;20075;-77
2022/09/16 09:31:11;;;;;;;9.02;2.25;;;24.90;73.70;;;;;;10747697;33;20059;-74
2022/09/16 09:37:53;;;;;;;9.90;2.33;;;25.00;73.50;;;;;;10756642;33;20337;-74
2022/09/16 09:44:35;;;;;;;2.75;1.85;;;25.20;73.00;;;;;;10803433;32;20043;-75
2022/09/16 09:50:51;;;;;;;8.00;2.58;;;25.30;72.60;;;;;;10872859;32;20035;-74
2022/09/16 09:57:00;;;;;;;4.43;2.03;;;25.50;72.20;;;;;;10872737;32;20058;-75
2022/09/16 10:03:06;;;;;;;6.87;2.08;;;25.60;72.10;;;;;;10872689;32;20422;-74
2022/09/16 10:09:13;;;;;;;6.37;2.37;;;25.70;71.70;;;;;;10872121;32;20019;-74
2022/09/16 10:15:22;;;;;;;3.85;2.35;;;25.80;71.20;;;;;;10894234;32;20385;-74
2022/09/16 10:21:25;;;;;;;3.28;1.60;;;25.90;71.00;;;;;;10904692;32;20031;-74
2022/09/16 10:27:37;;;;;;;2.35;1.42;;;26.10;70.70;;;;;;10905134;32;20066;-75
2022/09/16 10:33:44;;;;;;;4.32;1.67;;;26.30;70.40;;;;;;10884952;32;20122;-74
2022/09/16 10:39:53;;;;;;;2.15;1.33;;;26.30;70.10;;;;;;10871529;32;20031;-74
2022/09/16 10:45:56;;;;;;;4.05;1.40;;;26.60;69.70;;;;;;10870682;32;20059;-74
2022/09/16 10:52:20;;;;;;;5.65;2.28;;;26.70;69.20;;;;;;10870206;32;20044;-74
2022/09/16 10:58:22;;;;;;;2.97;1.35;;;26.90;68.70;;;;;;10867375;32;20058;-76
2022/09/16 11:04:38;;;;;;;3.15;1.73;;;27.00;68.60;;;;;;10903131;32;20054;-74
2022/09/16 11:10:50;;;;;;;5.93;1.67;;;27.30;68.10;;;;;;10908417;32;20023;-75
2022/09/16 11:17:10;;;;;;;6.65;1.83;;;27.50;67.20;;;;;;10908255;32;20036;-73
2022/09/16 11:23:43;;;;;;;4.68;2.03;;;27.70;66.60;;;;;;10903471;32;20031;-72
2022/09/16 11:30:04;;;;;;;6.62;2.53;;;27.90;66.10;;;;;;10901914;32;20074;-73
2022/09/16 11:37:10;;;;;;;5.25;2.05;;;28.10;65.60;;;;;;10906340;32;20085;-72
2022/09/16 11:43:27;;;;;;;11.20;2.30;;;28.10;66.20;;;;;;10907139;32;20023;-75
2022/09/16 11:49:35;;;;;;;4.30;2.00;;;28.00;66.10;;;;;;10907283;32;20031;-73
2022/09/16 11:56:12;;;;;;;14.27;3.28;;;28.10;65.80;;;;;;10902796;32;20041;-73
2022/09/16 12:02:23;;;;;;;9.13;2.75;;;28.10;65.50;;;;;;10902460;32;20438;-73
2022/09/16 12:09:12;;;;;;;4.97;2.60;;;28.10;64.90;;;;;;10884273;32;20052;-74
2022/09/16 12:15:46;;;;;;;18.45;2.62;;;27.90;65.00;;;;;;10868839;32;20392;-73
2022/09/16 12:21:55;;;;;;;6.20;2.65;;;28.00;64.80;;;;;;10717781;33;20029;-73
2022/09/16 12:28:23;;;;;;;9.38;2.35;;;27.90;64.80;;;;;;10717721;33;20059;-74
2022/09/16 12:34:48;;;;;;;3.78;1.83;;;28.00;65.00;;;;;;10607811;33;20052;-74
2022/09/16 12:41:03;;;;;;;5.60;2.10;;;27.90;65.40;;;;;;10607932;33;20038;-73
2022/09/16 12:47:20;;;;;;;6.95;2.65;;;27.80;65.30;;;;;;10605163;33;20091;-73
2022/09/16 12:53:54;;;;;;;4.43;2.15;;;27.80;65.20;;;;;;10605502;33;20060;-72
2022/09/16 13:00:21;;;;;;;3.12;1.67;;;27.60;65.60;;;;;;10751454;33;20152;-73
2022/09/16 13:06:31;;;;;;;2.80;1.58;;;27.50;65.80;;;;;;10752826;33;20033;-72
2022/09/16 13:12:34;;;;;;;5.20;2.67;;;27.60;65.60;;;;;;10876945;32;20407;-74
2022/09/16 13:18:44;;;;;;;2.08;1.37;;;27.80;65.40;;;;;;10866470;32;20059;-73
2022/09/16 13:25:19;;;;;;;5.50;2.42;;;27.60;65.60;;;;;;10867268;32;20047;-74
2022/09/16 13:31:29;;;;;;;9.88;1.75;;;27.30;66.00;;;;;;10864409;32;20028;-74
2022/09/16 13:37:31;;;;;;;4.60;2.22;;;27.10;66.60;;;;;;10867458;32;20384;-73
2022/09/16 13:43:52;;;;;;;1.42;1.15;;;26.90;66.80;;;;;;10862903;32;20050;-73
2022/09/16 13:50:20;;;;;;;10.15;2.55;;;26.90;67.00;;;;;;10866820;32;20023;-75
2022/09/16 13:56:27;;;;;;;1.52;1.23;;;26.90;66.90;;;;;;10866976;32;20426;-75
2022/09/16 14:02:50;;;;;;;2.28;1.48;;;26.80;67.10;;;;;;10890883;32;20031;-75
2022/09/16 14:09:25;;;;;;;8.18;2.12;;;26.80;67.20;;;;;;10910663;32;20074;-75
2022/09/16 14:15:33;;;;;;;1.92;0.93;;;26.70;67.00;;;;;;10874708;27;20040;-74
2022/09/16 14:21:59;;;;;;;;;;;26.70;67.30;;;;;;10870147;32;20058;-74
2022/09/16 14:28:22;;;;;;;2.30;1.58;;;26.60;67.30;;;;;;10867624;32;19950;-73
2022/09/16 14:34:35;;;;;;;7.45;2.28;;;26.60;67.60;;;;;;10870923;32;20548;-73
2022/09/16 14:40:39;;;;;;;2.58;1.67;;;26.60;68.40;;;;;;10867057;32;20016;-73
2022/09/16 14:46:48;;;;;;;4.10;1.95;;;26.80;68.70;;;;;;10870624;32;20020;-73
2022/09/16 14:53:04;;;;;;;8.75;1.92;;;27.10;68.30;;;;;;10870267;32;20023;-73
2022/09/16 14:59:10;;;;;;;7.62;2.10;;;27.30;68.00;;;;;;10866251;32;20062;-73
2022/09/16 15:05:32;;;;;;;4.03;1.40;;;27.50;67.70;;;;;;10866837;32;20015;-73
2022/09/16 15:11:47;;;;;;;2.62;1.12;;;27.70;67.30;;;;;;10864533;32;20035;-74
2022/09/16 15:18:03;;;;;;;6.30;1.50;;;28.00;66.80;;;;;;10867200;32;20027;-73
2022/09/16 15:24:15;;;;;;;3.40;1.50;;;28.30;66.20;;;;;;10869210;32;20090;-73
2022/09/16 15:30:23;;;;;;;3.70;1.17;;;28.50;65.50;;;;;;10868682;32;20417;-76
2022/09/16 15:36:36;;;;;;;2.37;1.42;;;28.70;65.10;;;;;;10865052;32;20074;-74
2022/09/16 15:42:38;;;;;;;4.72;1.30;;;28.90;64.90;;;;;;10868748;32;20003;-74
2022/09/16 15:48:47;;;;;;;2.25;1.25;;;29.30;64.00;;;;;;10863949;32;20070;-74
2022/09/16 15:54:58;;;;;;;2.90;1.02;;;29.70;63.00;;;;;;10867958;32;20016;-74
2022/09/16 16:01:15;;;;;;;3.87;1.60;;;29.20;63.80;;;;;;10867878;32;20046;-74
2022/09/16 16:07:36;;;;;;;;;;;28.80;64.40;;;;;;10868321;32;20293;-74
2022/09/16 16:13:38;;;;;;;1.98;0.93;;;28.60;64.80;;;;;;10865490;32;20215;-74
2022/09/16 16:19:42;;;;;;;1.35;1.17;;;28.30;65.10;;;;;;10865348;32;20028;-74
2022/09/16 16:25:44;;;;;;;2.08;1.27;;;28.20;65.50;;;;;;10867417;32;20023;-74
2022/09/16 16:32:03;;;;;;;2.80;0.80;;;28.00;65.60;;;;;;10867404;32;20027;-74
2022/09/16 16:38:11;;;;;;;4.68;1.33;;;27.80;65.80;;;;;;10859229;32;20085;-74
2022/09/16 16:45:03;;;;;;;5.28;1.37;;;27.50;66.30;;;;;;10865451;32;20293;-74
2022/09/16 16:51:09;;;;;;;2.95;1.40;;;27.30;66.60;;;;;;10862662;32;20435;-74
2022/09/16 16:57:11;;;;;;;8.27;1.58;;;27.10;66.90;;;;;;10851103;32;20039;-74
2022/09/16 17:03:16;;;;;;;4.05;1.30;;;27.00;67.10;;;;;;10829731;33;20054;-74
2022/09/16 17:09:19;;;;;;;6.50;1.55;;;26.80;67.30;;;;;;10829449;33;20050;-75
2022/09/16 17:15:22;;;;;;;2.45;1.10;;;26.60;67.60;;;;;;10829218;33;20028;-74
2022/09/16 17:21:27;;;;;;;3.10;1.30;;;26.60;67.70;;;;;;10827420;32;20070;-75
2022/09/16 17:27:29;;;;;;;10.80;1.92;;;26.40;67.90;;;;;;10845833;32;20423;-75
2022/09/16 17:33:31;;;;;;;3.15;1.42;;;26.30;67.90;;;;;;10866799;32;20411;-75
2022/09/16 17:39:47;;;;;;;4.55;1.10;;;26.30;68.00;;;;;;10873255;32;20439;-74
2022/09/16 17:45:52;;;;;;;4.90;1.40;;;26.20;68.20;;;;;;10872988;32;20328;-75
2022/09/16 17:52:15;;;;;;;3.40;1.60;;;26.10;68.30;;;;;;10872628;32;20046;-75
2022/09/16 17:58:18;;;;;;;3.00;1.37;;;26.10;68.40;;;;;;10868381;32;20054;-75
2022/09/16 18:04:22;;;;;;;5.43;1.83;;;26.00;68.50;;;;;;10870553;32;20024;-76
2022/09/16 18:10:24;;;;;;;2.15;1.52;;;26.00;68.50;;;;;;10870727;32;20032;-74
2022/09/16 18:16:28;;;;;;;10.57;3.53;;;25.80;68.50;;;;;;10871608;32;20340;-74
2022/09/16 18:22:32;;;;;;;12.25;3.97;;;25.70;67.90;;;;;;10871410;32;20039;-71
2022/09/16 18:28:40;;;;;;;9.77;2.42;;;25.20;69.70;;;;;;10871174;32;20028;-71
2022/09/16 18:34:42;;;;;;;7.95;2.22;;;24.40;72.80;;;;;;10870845;32;20028;-71
2022/09/16 18:41:16;;;;;;;4.25;1.62;;;23.80;74.20;;;;;;10868720;32;20046;-71
2022/09/16 18:47:19;;;;;;;1.60;1.10;;;23.50;75.50;;;;;;10720587;33;20055;-70
2022/09/16 18:53:21;;;;;;;1.62;0.93;;;23.50;75.40;;;;;;10716505;33;20029;-71
2022/09/16 18:59:33;;;;;;;2.28;1.12;;;23.60;74.90;;;;;;10719573;33;20060;-71
2022/09/16 19:05:35;;;;;;;1.52;1.00;;;23.70;74.70;;;;;;10715155;33;20342;-72
2022/09/16 19:11:39;;;;;;;4.85;0.90;;;23.60;75.30;;;;;;10716138;33;20028;-71
2022/09/16 19:18:01;;;;;;;2.50;1.02;;;23.50;75.60;;;;;;10720649;33;20021;-71
2022/09/16 19:24:06;;;;;;;1.48;0.77;;;23.40;75.60;;;;;;10850766;32;20015;-71
2022/09/16 19:30:14;;;;;;;0.47;0.47;;;23.40;75.60;;;;;;10869436;32;20050;-71
2022/09/16 19:36:19;;;;;;;0.85;0.50;;;23.30;75.70;;;;;;10869246;32;20027;-72
2022/09/16 19:42:25;;;;;;;1.48;1.00;;;23.20;76.40;;;;;;10869180;32;20403;-72
2022/09/16 19:48:31;;;;;;;1.15;0.73;;;23.20;76.60;;;;;;10867963;32;20031;-71
2022/09/16 19:54:33;;;;;;;1.75;0.70;;;23.30;76.50;;;;;;10868588;32;20038;-71
2022/09/16 20:00:37;;;;;;;0.85;0.37;;;23.20;76.80;;;;;;10868280;32;20324;-72
2022/09/16 20:06:41;;;;;;;0.40;0.40;;;23.20;76.90;;;;;;10867348;32;20024;-71
2022/09/16 20:12:43;;;;;;;0.68;0.65;;;23.30;76.60;;;;;;10868105;32;20054;-72
2022/09/16 20:18:47;;;;;;;1.62;0.80;;;23.20;76.50;;;;;;10867937;32;20379;-71
2022/09/16 20:24:50;;;;;;;1.85;0.70;;;23.10;76.40;;;;;;10867601;32;20082;-71
2022/09/16 20:30:52;;;;;;;1.05;0.65;;;22.80;77.10;;;;;;10866430;32;20027;-72
2022/09/16 20:37:02;;;;;;;1.05;0.50;;;22.40;77.90;;;;;;10867410;32;20331;-72
2022/09/16 20:43:05;;;;;;;2.03;0.90;;;22.20;78.80;;;;;;10867347;32;20324;-71
2022/09/16 20:49:12;;;;;;;1.40;0.70;;;21.80;79.60;;;;;;10867025;32;20024;-71
2022/09/16 20:55:14;;;;;;;2.00;0.98;;;21.80;80.40;;;;;;10862774;32;20046;-72
2022/09/16 21:01:19;;;;;;;7.03;0.60;;;21.80;80.60;;;;;;10866665;32;20054;-70
2022/09/16 21:07:22;;;;;;;0.90;0.68;;;21.80;80.90;;;;;;10873005;32;20121;-69
2022/09/16 21:13:24;;;;;;;2.75;1.05;;;21.80;80.70;;;;;;10874321;32;20050;-70
2022/09/16 21:19:26;;;;;;;0.98;0.60;;;21.60;80.80;;;;;;10874288;32;20379;-70
2022/09/16 21:25:29;;;;;;;0.60;0.60;;;21.50;80.30;;;;;;10874066;32;20383;-70
2022/09/16 21:31:32;;;;;;;3.00;1.02;;;21.40;80.90;;;;;;10873661;32;20046;-71
2022/09/16 21:37:34;;;;;;;0.88;0.70;;;21.40;81.40;;;;;;10871019;32;20091;-70
2022/09/16 21:44:03;;;;;;;0.30;0.30;;;21.30;81.30;;;;;;10836433;32;20035;-71
2022/09/16 21:50:09;;;;;;;0.80;0.57;;;21.30;81.40;;;;;;10836135;32;20067;-71
2022/09/16 21:56:17;;;;;;;0.75;0.70;;;21.40;81.20;;;;;;10835714;32;20059;-71
2022/09/16 22:02:19;;;;;;;1.25;1.00;;;21.40;81.10;;;;;;10836209;32;20020;-71
2022/09/16 22:08:21;;;;;;;1.73;0.50;;;21.20;81.00;;;;;;10846709;32;20380;-70
2022/09/16 22:14:22;;;;;;;0.40;0.40;;;21.10;81.20;;;;;;10861835;27;20395;-72
2022/09/16 22:20:25;;;;;;;0.62;0.60;;;21.00;81.40;;;;;;10864262;32;20424;-72
2022/09/16 22:26:28;;;;;;;0.70;0.40;;;21.00;81.70;;;;;;10872021;32;20019;-71
2022/09/16 22:32:30;;;;;;;1.45;0.70;;;21.00;81.80;;;;;;10871809;32;20024;-71
2022/09/16 22:38:32;;;;;;;2.05;0.90;;;21.00;81.80;;;;;;10871723;32;20512;-72
2022/09/16 22:44:34;;;;;;;2.37;0.70;;;21.00;81.90;;;;;;10871288;32;20313;-72
2022/09/16 22:50:36;;;;;;;2.85;0.60;;;21.00;82.40;;;;;;10870930;32;20077;-71
2022/09/16 22:56:38;;;;;;;0.37;0.35;;;21.00;82.50;;;;;;10868148;32;20050;-71
2022/09/16 23:02:40;;;;;;;0.80;0.40;;;20.90;82.10;;;;;;10870751;32;20035;-71
2022/09/16 23:08:44;;;;;;;0.88;0.47;;;20.90;82.30;;;;;;10870470;32;20027;-71
2022/09/16 23:14:54;;;;;;;0.37;0.37;;;20.80;82.60;;;;;;10870148;32;20081;-71
2022/09/16 23:21:08;;;;;;;0.37;0.37;;;20.70;82.30;;;;;;10870176;32;20447;-71
2022/09/16 23:27:10;;;;;;;0.60;0.60;;;20.70;82.50;;;;;;10869399;32;20020;-70
2022/09/16 23:33:12;;;;;;;0.30;0.30;;;20.80;82.10;;;;;;10869511;32;20028;-71
2022/09/16 23:39:16;;;;;;;0.40;0.40;;;20.80;81.80;;;;;;10869264;32;20324;-71
2022/09/16 23:45:18;;;;;;;2.22;0.80;;;20.80;81.60;;;;;;10869214;32;20020;-71
2022/09/16 23:51:22;;;;;;;0.75;0.60;;;20.90;81.30;;;;;;10864843;32;20024;-72
2022/09/16 23:57:24;;;;;;;1.25;0.45;;;20.90;81.40;;;;;;10868460;32;20046;-72
